sensor_id;sensor_type;location;lat;lon;timestamp;pressure;altitude;pressure_sealevel;temperature;humidity
71344;BME280;59146;43.850;25.948;2023-02-05T00:01:51;101455.59;;;0.05;77.65
71344;BME280;59146;43.850;25.948;2023-02-05T00:04:16;101488.09;;;0.09;77.48
71344;BME280;59146;43.850;25.948;2023-02-05T00:06:42;101400.88;;;-0.33;78.12
71344;BME280;59146;43.850;25.948;2023-02-05T00:09:07;101394.88;;;-0.25;78.60
71344;BME280;59146;43.850;25.948;2023-02-05T00:11:33;101384.66;;;-0.41;78.71
71344;BME280;59146;43.850;25.948;2023-02-05T00:13:58;101384.66;;;-0.34;78.62
71344;BME280;59146;43.850;25.948;2023-02-05T00:16:24;101437.66;;;-0.13;78.61
71344;BME280;59146;43.850;25.948;2023-02-05T00:18:50;101470.97;;;0.20;78.69
71344;BME280;59146;43.850;25.948;2023-02-05T00:21:16;101435.09;;;-0.13;78.07
71344;BME280;59146;43.850;25.948;2023-02-05T00:23:42;101496.66;;;0.11;77.15
71344;BME280;59146;43.850;25.948;2023-02-05T00:26:08;101417.97;;;-0.17;77.11
71344;BME280;59146;43.850;25.948;2023-02-05T00:28:35;101465.84;;;0.07;75.69
71344;BME280;59146;43.850;25.948;2023-02-05T00:31:09;101522.41;;;0.02;73.82
71344;BME280;59146;43.850;25.948;2023-02-05T00:33:36;101499.28;;;-0.03;74.33
71344;BME280;59146;43.850;25.948;2023-02-05T00:36:01;101473.59;;;-0.03;74.06
71344;BME280;59146;43.850;25.948;2023-02-05T00:38:27;101429.13;;;-0.29;74.36
71344;BME280;59146;43.850;25.948;2023-02-05T00:40:52;101522.38;;;0.10;73.39
71344;BME280;59146;43.850;25.948;2023-02-05T00:43:17;101471.91;;;-0.11;72.57
71344;BME280;59146;43.850;25.948;2023-02-05T00:45:43;101503.56;;;-0.03;71.76
71344;BME280;59146;43.850;25.948;2023-02-05T00:48:08;101472.75;;;-0.15;71.99
71344;BME280;59146;43.850;25.948;2023-02-05T00:50:34;101423.16;;;-0.47;71.21
71344;BME280;59146;43.850;25.948;2023-02-05T00:52:59;101519.75;;;0.28;70.69
71344;BME280;59146;43.850;25.948;2023-02-05T00:55:25;101491.53;;;0.16;70.59
71344;BME280;59146;43.850;25.948;2023-02-05T00:57:51;101499.25;;;0.05;70.42
71344;BME280;59146;43.850;25.948;2023-02-05T01:00:17;101555.75;;;0.17;69.98
71344;BME280;59146;43.850;25.948;2023-02-05T01:02:43;101528.38;;;-0.20;68.60
71344;BME280;59146;43.850;25.948;2023-02-05T01:05:09;101480.50;;;-0.47;68.03
71344;BME280;59146;43.850;25.948;2023-02-05T01:07:34;101531.81;;;-0.44;67.60
71344;BME280;59146;43.850;25.948;2023-02-05T01:09:59;101447.13;;;-0.47;67.50
71344;BME280;59146;43.850;25.948;2023-02-05T01:12:25;101490.75;;;-0.54;67.12
71344;BME280;59146;43.850;25.948;2023-02-05T01:14:50;101512.13;;;-0.21;67.10
71344;BME280;59146;43.850;25.948;2023-02-05T01:17:17;101488.16;;;-0.33;67.09
71344;BME280;59146;43.850;25.948;2023-02-05T01:19:43;101518.97;;;-0.18;67.57
71344;BME280;59146;43.850;25.948;2023-02-05T01:22:08;101566.91;;;-0.04;67.30
71344;BME280;59146;43.850;25.948;2023-02-05T01:24:36;101544.66;;;-0.21;66.43
71344;BME280;59146;43.850;25.948;2023-02-05T01:27:01;101513.84;;;-0.50;67.06
71344;BME280;59146;43.850;25.948;2023-02-05T01:29:27;101534.41;;;-0.21;66.88
71344;BME280;59146;43.850;25.948;2023-02-05T01:31:53;101566.03;;;-0.10;66.15
71344;BME280;59146;43.850;25.948;2023-02-05T01:34:18;101557.50;;;-0.23;65.79
71344;BME280;59146;43.850;25.948;2023-02-05T01:36:44;101550.63;;;-0.21;65.60
71344;BME280;59146;43.850;25.948;2023-02-05T01:39:09;101499.31;;;-0.61;65.60
71344;BME280;59146;43.850;25.948;2023-02-05T01:41:35;101572.03;;;-0.26;66.31
71344;BME280;59146;43.850;25.948;2023-02-05T01:44:12;101606.25;;;-0.27;65.98
71344;BME280;59146;43.850;25.948;2023-02-05T01:46:43;101545.50;;;-0.39;66.05
71344;BME280;59146;43.850;25.948;2023-02-05T01:49:22;101560.91;;;-0.27;66.20
71344;BME280;59146;43.850;25.948;2023-02-05T01:51:50;101537.78;;;-0.58;65.67
71344;BME280;59146;43.850;25.948;2023-02-05T01:54:18;101530.09;;;-0.63;65.56
71344;BME280;59146;43.850;25.948;2023-02-05T01:56:51;101504.44;;;-0.72;65.80
71344;BME280;59146;43.850;25.948;2023-02-05T01:59:21;101548.06;;;-0.60;66.21
71344;BME280;59146;43.850;25.948;2023-02-05T02:01:49;101525.78;;;-0.81;66.35
71344;BME280;59146;43.850;25.948;2023-02-05T02:04:24;101581.44;;;-0.49;66.10
71344;BME280;59146;43.850;25.948;2023-02-05T02:06:54;101537.78;;;-0.76;66.04
71344;BME280;59146;43.850;25.948;2023-02-05T02:09:19;101614.81;;;-0.46;66.35
71344;BME280;59146;43.850;25.948;2023-02-05T02:11:44;101580.59;;;-0.53;66.58
71344;BME280;59146;43.850;25.948;2023-02-05T02:14:10;101594.28;;;-0.46;66.17
71344;BME280;59146;43.850;25.948;2023-02-05T02:16:37;101572.00;;;-0.68;66.63
71344;BME280;59146;43.850;25.948;2023-02-05T02:19:11;101561.72;;;-0.68;66.81
71344;BME280;59146;43.850;25.948;2023-02-05T02:32:37;101612.13;;;-0.95;64.59
71344;BME280;59146;43.850;25.948;2023-02-05T02:35:16;101669.50;;;-0.62;65.26
71344;BME280;59146;43.850;25.948;2023-02-05T02:37:57;101602.69;;;-0.96;65.23
71344;BME280;59146;43.850;25.948;2023-02-05T02:40:39;101706.34;;;-0.51;64.68
71344;BME280;59146;43.850;25.948;2023-02-05T02:43:14;101574.38;;;-1.23;64.13
71344;BME280;59146;43.850;25.948;2023-02-05T02:45:55;101645.53;;;-0.69;64.36
71344;BME280;59146;43.850;25.948;2023-02-05T02:48:24;101663.56;;;-0.55;63.19
71344;BME280;59146;43.850;25.948;2023-02-05T02:50:54;101683.22;;;-0.57;63.08
71344;BME280;59146;43.850;25.948;2023-02-05T02:53:29;101628.38;;;-0.84;63.44
71344;BME280;59146;43.850;25.948;2023-02-05T02:55:59;101642.06;;;-0.89;62.96
71344;BME280;59146;43.850;25.948;2023-02-05T02:58:53;101622.34;;;-0.96;62.47
71344;BME280;59146;43.850;25.948;2023-02-05T03:01:23;101630.06;;;-0.95;63.28
71344;BME280;59146;43.850;25.948;2023-02-05T03:03:54;101627.47;;;-0.96;62.75
71344;BME280;59146;43.850;25.948;2023-02-05T03:06:23;101623.16;;;-1.05;63.32
71344;BME280;59146;43.850;25.948;2023-02-05T03:09:10;101611.16;;;-1.15;63.72
71344;BME280;59146;43.850;25.948;2023-02-05T03:11:36;101650.56;;;-1.01;63.45
71344;BME280;59146;43.850;25.948;2023-02-05T03:14:02;101741.22;;;-0.90;62.47
71344;BME280;59146;43.850;25.948;2023-02-05T03:16:27;101703.72;;;-0.69;63.27
71344;BME280;59146;43.850;25.948;2023-02-05T03:18:54;101630.00;;;-1.10;63.17
71344;BME280;59146;43.850;25.948;2023-02-05T03:21:24;101624.88;;;-1.10;63.30
71344;BME280;59146;43.850;25.948;2023-02-05T03:23:52;101672.06;;;-0.71;63.69
71344;BME280;59146;43.850;25.948;2023-02-05T03:26:28;101603.38;;;-1.31;62.85
71344;BME280;59146;43.850;25.948;2023-02-05T03:28:55;101696.84;;;-0.73;62.37
71344;BME280;59146;43.850;25.948;2023-02-05T03:48:16;101724.19;;;-0.78;59.92
71344;BME280;59146;43.850;25.948;2023-02-05T03:50:50;101752.47;;;-0.66;60.59
71344;BME280;59146;43.850;25.948;2023-02-05T03:53:59;101745.59;;;-0.72;60.35
71344;BME280;59146;43.850;25.948;2023-02-05T03:56:42;101761.03;;;-0.67;59.54
71344;BME280;59146;43.850;25.948;2023-02-05T03:59:10;101758.41;;;-0.76;60.08
71344;BME280;59146;43.850;25.948;2023-02-05T04:01:37;101669.28;;;-1.12;60.30
71344;BME280;59146;43.850;25.948;2023-02-05T04:04:03;101784.94;;;-0.76;59.66
71344;BME280;59146;43.850;25.948;2023-02-05T04:06:29;101657.22;;;-1.30;58.81
71344;BME280;59146;43.850;25.948;2023-02-05T04:08:54;101772.13;;;-0.68;59.48
71344;BME280;59146;43.850;25.948;2023-02-05T04:11:19;101712.16;;;-0.92;59.02
71344;BME280;59146;43.850;25.948;2023-02-05T04:13:45;101739.56;;;-0.82;58.50
71344;BME280;59146;43.850;25.948;2023-02-05T04:16:10;101722.38;;;-0.98;58.86
71344;BME280;59146;43.850;25.948;2023-02-05T04:18:36;101779.78;;;-0.74;58.49
71344;BME280;59146;43.850;25.948;2023-02-05T04:21:01;101794.38;;;-0.67;58.84
71344;BME280;59146;43.850;25.948;2023-02-05T04:23:26;101785.75;;;-0.77;58.35
71344;BME280;59146;43.850;25.948;2023-02-05T04:25:53;101817.50;;;-0.63;58.51
71344;BME280;59146;43.850;25.948;2023-02-05T04:28:19;101748.03;;;-0.98;58.12
71344;BME280;59146;43.850;25.948;2023-02-05T04:30:45;101744.63;;;-0.95;58.73
71344;BME280;59146;43.850;25.948;2023-02-05T04:33:10;101769.44;;;-0.90;58.81
71344;BME280;59146;43.850;25.948;2023-02-05T04:35:35;101816.59;;;-0.75;57.39
71344;BME280;59146;43.850;25.948;2023-02-05T04:38:01;101821.00;;;-0.49;58.23
71344;BME280;59146;43.850;25.948;2023-02-05T04:40:26;101809.91;;;-0.43;57.49
71344;BME280;59146;43.850;25.948;2023-02-05T04:42:52;101863.84;;;-0.39;56.02
71344;BME280;59146;43.850;25.948;2023-02-05T04:45:17;101758.31;;;-0.95;57.13
71344;BME280;59146;43.850;25.948;2023-02-05T04:47:43;101771.97;;;-0.96;57.50
71344;BME280;59146;43.850;25.948;2023-02-05T04:50:08;101780.56;;;-0.89;56.50
71344;BME280;59146;43.850;25.948;2023-02-05T04:52:34;101780.66;;;-0.75;56.61
71344;BME280;59146;43.850;25.948;2023-02-05T04:54:59;101780.53;;;-0.97;56.81
71344;BME280;59146;43.850;25.948;2023-02-05T04:57:25;101778.72;;;-1.07;56.27
71344;BME280;59146;43.850;25.948;2023-02-05T04:59:50;101787.47;;;-0.77;56.57
71344;BME280;59146;43.850;25.948;2023-02-05T05:02:16;101866.38;;;-0.46;56.46
71344;BME280;59146;43.850;25.948;2023-02-05T05:04:41;101792.41;;;-1.05;56.30
71344;BME280;59146;43.850;25.948;2023-02-05T05:07:07;101805.38;;;-0.88;55.14
71344;BME280;59146;43.850;25.948;2023-02-05T05:09:35;101799.28;;;-1.04;56.55
71344;BME280;59146;43.850;25.948;2023-02-05T05:12:01;101804.38;;;-1.07;57.16
71344;BME280;59146;43.850;25.948;2023-02-05T05:14:26;101809.63;;;-0.92;57.09
71344;BME280;59146;43.850;25.948;2023-02-05T05:16:52;101846.47;;;-0.77;56.87
71344;BME280;59146;43.850;25.948;2023-02-05T05:19:17;101882.47;;;-0.67;56.62
71344;BME280;59146;43.850;25.948;2023-02-05T05:21:43;101841.31;;;-0.85;56.83
71344;BME280;59146;43.850;25.948;2023-02-05T05:24:08;101790.59;;;-1.24;56.88
71344;BME280;59146;43.850;25.948;2023-02-05T05:26:34;101872.16;;;-0.74;56.97
71344;BME280;59146;43.850;25.948;2023-02-05T05:28:59;101830.06;;;-1.05;56.65
71344;BME280;59146;43.850;25.948;2023-02-05T05:31:25;101871.84;;;-1.15;56.94
71344;BME280;59146;43.850;25.948;2023-02-05T05:33:50;101904.66;;;-0.76;57.61
71344;BME280;59146;43.850;25.948;2023-02-05T05:36:16;101828.31;;;-1.08;57.17
71344;BME280;59146;43.850;25.948;2023-02-05T05:38:42;101827.53;;;-0.98;57.60
71344;BME280;59146;43.850;25.948;2023-02-05T05:41:20;101877.25;;;-0.77;57.26
71344;BME280;59146;43.850;25.948;2023-02-05T05:44:21;101844.59;;;-1.01;57.30
71344;BME280;59146;43.850;25.948;2023-02-05T05:46:47;101914.03;;;-0.77;57.55
71344;BME280;59146;43.850;25.948;2023-02-05T05:49:12;101884.09;;;-0.81;57.19
71344;BME280;59146;43.850;25.948;2023-02-05T05:51:37;101908.09;;;-0.76;57.32
71344;BME280;59146;43.850;25.948;2023-02-05T05:54:03;101872.03;;;-0.93;57.25
71344;BME280;59146;43.850;25.948;2023-02-05T05:56:28;101895.16;;;-0.87;57.32
71344;BME280;59146;43.850;25.948;2023-02-05T05:58:53;101893.47;;;-0.83;56.51
71344;BME280;59146;43.850;25.948;2023-02-05T06:01:19;101914.91;;;-0.78;56.33
71344;BME280;59146;43.850;25.948;2023-02-05T06:03:46;101861.69;;;-1.02;55.58
71344;BME280;59146;43.850;25.948;2023-02-05T06:06:11;101944.13;;;-0.59;55.74
71344;BME280;59146;43.850;25.948;2023-02-05T06:08:37;101845.41;;;-1.07;55.05
71344;BME280;59146;43.850;25.948;2023-02-05T06:11:02;101927.88;;;-0.61;55.93
71344;BME280;59146;43.850;25.948;2023-02-05T06:13:28;101886.59;;;-0.87;55.75
71344;BME280;59146;43.850;25.948;2023-02-05T06:15:53;101928.66;;;-0.67;55.27
71344;BME280;59146;43.850;25.948;2023-02-05T06:18:19;101867.75;;;-0.95;55.01
71344;BME280;59146;43.850;25.948;2023-02-05T06:20:44;101896.88;;;-0.89;55.49
71344;BME280;59146;43.850;25.948;2023-02-05T06:23:10;101889.22;;;-0.80;54.80
71344;BME280;59146;43.850;25.948;2023-02-05T06:25:36;101795.72;;;-1.21;54.88
71344;BME280;59146;43.850;25.948;2023-02-05T06:28:01;101862.63;;;-0.94;54.61
71344;BME280;59146;43.850;25.948;2023-02-05T06:30:27;101896.16;;;-0.69;55.30
71344;BME280;59146;43.850;25.948;2023-02-05T06:32:52;101933.91;;;-0.52;54.52
71344;BME280;59146;43.850;25.948;2023-02-05T06:35:18;101889.19;;;-0.86;55.02
71344;BME280;59146;43.850;25.948;2023-02-05T06:37:44;101929.72;;;-0.42;54.90
71344;BME280;59146;43.850;25.948;2023-02-05T06:40:10;101880.78;;;-0.65;54.99
71344;BME280;59146;43.850;25.948;2023-02-05T06:42:35;101905.81;;;-0.31;55.25
71344;BME280;59146;43.850;25.948;2023-02-05T06:45:01;101959.94;;;0.01;54.31
71344;BME280;59146;43.850;25.948;2023-02-05T06:47:27;101891.31;;;-0.24;54.50
71344;BME280;59146;43.850;25.948;2023-02-05T06:49:52;101904.00;;;-0.48;54.12
71344;BME280;59146;43.850;25.948;2023-02-05T06:52:17;101880.06;;;-0.43;54.82
71344;BME280;59146;43.850;25.948;2023-02-05T06:54:45;101935.16;;;0.15;54.43
71344;BME280;59146;43.850;25.948;2023-02-05T06:57:11;101948.09;;;0.35;54.14
71344;BME280;59146;43.850;25.948;2023-02-05T06:59:36;101893.09;;;-0.10;54.29
71344;BME280;59146;43.850;25.948;2023-02-05T07:02:02;101996.81;;;0.09;54.04
71344;BME280;59146;43.850;25.948;2023-02-05T07:04:27;101907.53;;;-0.34;54.42
71344;BME280;59146;43.850;25.948;2023-02-05T07:06:55;101954.78;;;0.03;54.68
71344;BME280;59146;43.850;25.948;2023-02-05T07:09:21;101954.91;;;0.22;53.90
71344;BME280;59146;43.850;25.948;2023-02-05T07:11:46;101910.25;;;-0.01;54.72
71344;BME280;59146;43.850;25.948;2023-02-05T07:14:12;101980.66;;;0.36;53.76
71344;BME280;59146;43.850;25.948;2023-02-05T07:16:37;101818.34;;;-0.62;54.35
71344;BME280;59146;43.850;25.948;2023-02-05T07:19:02;101908.63;;;0.15;54.19
71344;BME280;59146;43.850;25.948;2023-02-05T07:21:28;101908.66;;;0.21;54.44
71344;BME280;59146;43.850;25.948;2023-02-05T07:23:53;101898.25;;;-0.04;53.72
71344;BME280;59146;43.850;25.948;2023-02-05T07:26:19;101896.44;;;-0.23;53.96
71344;BME280;59146;43.850;25.948;2023-02-05T07:28:45;101946.22;;;-0.01;54.14
71344;BME280;59146;43.850;25.948;2023-02-05T07:31:12;101924.72;;;-0.18;54.52
71344;BME280;59146;43.850;25.948;2023-02-05T07:33:42;101901.50;;;-0.36;54.30
71344;BME280;59146;43.850;25.948;2023-02-05T07:36:08;101959.19;;;0.23;54.85
71344;BME280;59146;43.850;25.948;2023-02-05T07:38:35;101946.28;;;0.11;55.06
71344;BME280;59146;43.850;25.948;2023-02-05T07:41:05;101997.56;;;-0.07;55.62
71344;BME280;59146;43.850;25.948;2023-02-05T07:43:31;101916.19;;;-0.17;54.92
71344;BME280;59146;43.850;25.948;2023-02-05T07:46:01;101960.81;;;0.05;55.29
71344;BME280;59146;43.850;25.948;2023-02-05T07:48:27;101983.09;;;0.04;54.83
71344;BME280;59146;43.850;25.948;2023-02-05T07:50:52;101953.16;;;0.14;55.30
71344;BME280;59146;43.850;25.948;2023-02-05T07:53:18;101945.22;;;-0.26;55.85
71344;BME280;59146;43.850;25.948;2023-02-05T07:55:44;101909.22;;;-0.33;55.14
71344;BME280;59146;43.850;25.948;2023-02-05T07:58:09;101956.50;;;0.00;55.63
71344;BME280;59146;43.850;25.948;2023-02-05T08:00:35;101995.16;;;0.23;55.91
71344;BME280;59146;43.850;25.948;2023-02-05T08:03:01;101992.63;;;0.26;56.01
71344;BME280;59146;43.850;25.948;2023-02-05T08:05:26;101962.63;;;0.21;55.97
71344;BME280;59146;43.850;25.948;2023-02-05T08:07:52;102004.56;;;0.21;54.27
71344;BME280;59146;43.850;25.948;2023-02-05T08:10:18;101926.41;;;-0.19;54.79
71344;BME280;59146;43.850;25.948;2023-02-05T08:12:43;101959.97;;;0.04;54.89
71344;BME280;59146;43.850;25.948;2023-02-05T08:15:09;101976.13;;;-0.12;54.26
71344;BME280;59146;43.850;25.948;2023-02-05T08:17:35;101968.50;;;0.02;55.13
71344;BME280;59146;43.850;25.948;2023-02-05T08:20:00;101945.34;;;-0.02;55.18
71344;BME280;59146;43.850;25.948;2023-02-05T08:22:33;101929.16;;;0.10;55.77
71344;BME280;59146;43.850;25.948;2023-02-05T08:24:58;101992.59;;;0.23;54.23
71344;BME280;59146;43.850;25.948;2023-02-05T08:27:24;101943.63;;;-0.07;53.42
71344;BME280;59146;43.850;25.948;2023-02-05T08:29:49;102002.81;;;0.11;53.86
71344;BME280;59146;43.850;25.948;2023-02-05T08:32:15;102027.78;;;0.36;53.77
71344;BME280;59146;43.850;25.948;2023-02-05T08:34:40;101994.28;;;0.17;53.36
71344;BME280;59146;43.850;25.948;2023-02-05T08:37:06;102031.22;;;0.35;54.06
71344;BME280;59146;43.850;25.948;2023-02-05T08:39:31;102036.38;;;0.35;52.37
71344;BME280;59146;43.850;25.948;2023-02-05T08:41:57;102023.47;;;0.25;52.82
71344;BME280;59146;43.850;25.948;2023-02-05T08:44:23;102035.44;;;0.23;52.11
71344;BME280;59146;43.850;25.948;2023-02-05T08:46:49;101995.03;;;-0.01;51.70
71344;BME280;59146;43.850;25.948;2023-02-05T08:49:14;102019.13;;;0.19;51.58
71344;BME280;59146;43.850;25.948;2023-02-05T08:51:41;101982.28;;;0.14;51.93
71344;BME280;59146;43.850;25.948;2023-02-05T08:54:07;102108.63;;;0.84;50.65
71344;BME280;59146;43.850;25.948;2023-02-05T08:56:38;102026.19;;;0.59;50.80
71344;BME280;59146;43.850;25.948;2023-02-05T08:59:04;102036.53;;;0.68;50.19
71344;BME280;59146;43.850;25.948;2023-02-05T09:01:30;102055.38;;;0.64;49.32
71344;BME280;59146;43.850;25.948;2023-02-05T09:03:55;102019.34;;;0.63;48.93
71344;BME280;59146;43.850;25.948;2023-02-05T09:06:22;102053.69;;;0.72;48.44
71344;BME280;59146;43.850;25.948;2023-02-05T09:08:47;101890.47;;;-0.23;48.43
71344;BME280;59146;43.850;25.948;2023-02-05T09:11:13;102014.97;;;0.39;47.29
71344;BME280;59146;43.850;25.948;2023-02-05T09:13:38;102005.56;;;0.50;48.32
71344;BME280;59146;43.850;25.948;2023-02-05T09:16:04;102047.69;;;0.76;48.53
71344;BME280;59146;43.850;25.948;2023-02-05T09:18:30;102001.28;;;0.45;47.88
71344;BME280;59146;43.850;25.948;2023-02-05T09:20:55;101880.38;;;0.21;48.14
71344;BME280;59146;43.850;25.948;2023-02-05T09:23:21;102047.84;;;1.43;47.84
71344;BME280;59146;43.850;25.948;2023-02-05T09:25:47;102051.25;;;1.19;47.78
71344;BME280;59146;43.850;25.948;2023-02-05T09:28:13;102013.44;;;0.91;46.00
71344;BME280;59146;43.850;25.948;2023-02-05T09:30:42;102011.72;;;0.79;45.68
71344;BME280;59146;43.850;25.948;2023-02-05T09:33:07;102001.41;;;0.82;45.71
71344;BME280;59146;43.850;25.948;2023-02-05T09:35:34;101987.69;;;0.85;45.14
71344;BME280;59146;43.850;25.948;2023-02-05T09:38:00;102055.53;;;1.28;45.25
71344;BME280;59146;43.850;25.948;2023-02-05T09:40:38;102040.06;;;0.96;44.67
71344;BME280;59146;43.850;25.948;2023-02-05T09:45:46;102081.31;;;1.23;42.25
71344;BME280;59146;43.850;25.948;2023-02-05T09:48:34;102056.44;;;1.40;42.35
71344;BME280;59146;43.850;25.948;2023-02-05T09:51:03;102023.84;;;1.50;42.99
71344;BME280;59146;43.850;25.948;2023-02-05T09:53:36;101998.03;;;1.06;40.44
71344;BME280;59146;43.850;25.948;2023-02-05T09:56:05;102008.31;;;0.94;39.78
71344;BME280;59146;43.850;25.948;2023-02-05T09:58:32;102049.53;;;1.23;40.58
71344;BME280;59146;43.850;25.948;2023-02-05T10:01:24;102005.75;;;0.96;40.76
71344;BME280;59146;43.850;25.948;2023-02-05T10:03:57;101856.25;;;-0.16;41.27
71344;BME280;59146;43.850;25.948;2023-02-05T10:20:23;102087.28;;;1.18;39.97
71344;BME280;59146;43.850;25.948;2023-02-05T10:23:06;102065.84;;;1.13;40.94
71344;BME280;59146;43.850;25.948;2023-02-05T10:25:57;102059.84;;;1.21;41.04
71344;BME280;59146;43.850;25.948;2023-02-05T10:29:02;102069.25;;;1.13;40.85
71344;BME280;59146;43.850;25.948;2023-02-05T10:31:57;101988.34;;;0.28;40.54
71344;BME280;59146;43.850;25.948;2023-02-05T10:37:05;102070.84;;;0.78;41.92
71344;BME280;59146;43.850;25.948;2023-02-05T10:39:36;101985.03;;;0.55;42.36
71344;BME280;59146;43.850;25.948;2023-02-05T10:42:37;102074.44;;;1.27;41.72
71344;BME280;59146;43.850;25.948;2023-02-05T10:45:23;102070.13;;;1.12;42.70
71344;BME280;59146;43.850;25.948;2023-02-05T10:51:04;102063.25;;;1.28;42.31
71344;BME280;59146;43.850;25.948;2023-02-05T10:53:30;102027.22;;;1.10;42.33
71344;BME280;59146;43.850;25.948;2023-02-05T10:55:58;101982.53;;;0.79;42.43
71344;BME280;59146;43.850;25.948;2023-02-05T11:00:55;102055.59;;;1.52;42.09
71344;BME280;59146;43.850;25.948;2023-02-05T11:03:21;102010.03;;;0.94;42.97
71344;BME280;59146;43.850;25.948;2023-02-05T11:05:48;102065.84;;;1.25;43.17
71344;BME280;59146;43.850;25.948;2023-02-05T11:08:49;102057.25;;;1.20;43.29
71344;BME280;59146;43.850;25.948;2023-02-05T11:11:26;102024.63;;;1.04;43.25
71344;BME280;59146;43.850;25.948;2023-02-05T11:13:56;101989.50;;;1.21;43.93
71344;BME280;59146;43.850;25.948;2023-02-05T11:16:34;102062.47;;;1.74;43.32
71344;BME280;59146;43.850;25.948;2023-02-05T11:19:00;101999.81;;;1.30;44.17
71344;BME280;59146;43.850;25.948;2023-02-05T11:24:37;102022.13;;;1.44;44.10
71344;BME280;59146;43.850;25.948;2023-02-05T11:29:39;102033.28;;;1.43;44.02
71344;BME280;59146;43.850;25.948;2023-02-05T11:32:28;102006.59;;;0.99;43.95
71344;BME280;59146;43.850;25.948;2023-02-05T11:35:11;102045.22;;;1.04;44.32
71344;BME280;59146;43.850;25.948;2023-02-05T11:37:40;102043.50;;;1.13;44.46
71344;BME280;59146;43.850;25.948;2023-02-05T11:40:17;102062.38;;;1.12;44.49
71344;BME280;59146;43.850;25.948;2023-02-05T11:42:47;101988.50;;;0.73;44.53
71344;BME280;59146;43.850;25.948;2023-02-05T11:45:16;102020.34;;;0.98;44.94
71344;BME280;59146;43.850;25.948;2023-02-05T11:47:46;102020.34;;;1.18;44.94
71344;BME280;59146;43.850;25.948;2023-02-05T11:50:24;102035.84;;;1.30;43.66
71344;BME280;59146;43.850;25.948;2023-02-05T11:52:51;102040.09;;;1.13;44.38
71344;BME280;59146;43.850;25.948;2023-02-05T11:55:27;102033.19;;;1.00;44.38
71344;BME280;59146;43.850;25.948;2023-02-05T11:57:59;101986.81;;;0.71;44.73
71344;BME280;59146;43.850;25.948;2023-02-05T12:00:25;102065.84;;;1.23;43.90
71344;BME280;59146;43.850;25.948;2023-02-05T12:03:03;102083.88;;;1.17;43.67
71344;BME280;59146;43.850;25.948;2023-02-05T12:05:36;101981.63;;;0.56;43.36
71344;BME280;59146;43.850;25.948;2023-02-05T12:16:27;102087.34;;;1.55;42.61
71344;BME280;59146;43.850;25.948;2023-02-05T12:19:13;102095.88;;;1.24;43.42
71344;BME280;59146;43.850;25.948;2023-02-05T12:32:59;102113.88;;;1.11;44.24
71344;BME280;59146;43.850;25.948;2023-02-05T12:35:52;102034.81;;;0.70;44.05
71344;BME280;59146;43.850;25.948;2023-02-05T12:38:43;102104.47;;;1.23;43.59
71344;BME280;59146;43.850;25.948;2023-02-05T12:41:20;102088.97;;;1.16;43.69
71344;BME280;59146;43.850;25.948;2023-02-05T12:43:48;102083.75;;;0.93;43.89
71344;BME280;59146;43.850;25.948;2023-02-05T12:46:19;102103.53;;;1.02;43.93
71344;BME280;59146;43.850;25.948;2023-02-05T13:02:40;102114.69;;;1.02;44.87
71344;BME280;59146;43.850;25.948;2023-02-05T13:05:20;102110.34;;;0.91;44.31
71344;BME280;59146;43.850;25.948;2023-02-05T13:10:26;102115.47;;;0.83;47.04
71344;BME280;59146;43.850;25.948;2023-02-05T13:13:01;102090.53;;;0.68;47.35
71344;BME280;59146;43.850;25.948;2023-02-05T13:15:33;102114.63;;;0.86;47.11
71344;BME280;59146;43.850;25.948;2023-02-05T13:18:09;102102.38;;;0.39;47.51
71344;BME280;59146;43.850;25.948;2023-02-05T13:20:41;101953.66;;;-0.43;47.95
71344;BME280;59146;43.850;25.948;2023-02-05T13:23:27;102089.59;;;0.54;47.16
71344;BME280;59146;43.850;25.948;2023-02-05T13:26:16;102103.31;;;0.59;46.80
71344;BME280;59146;43.850;25.948;2023-02-05T13:28:56;102108.53;;;0.68;46.60
71344;BME280;59146;43.850;25.948;2023-02-05T13:31:34;102082.88;;;0.77;46.69
71344;BME280;59146;43.850;25.948;2023-02-05T13:34:05;102127.50;;;0.95;46.31
71344;BME280;59146;43.850;25.948;2023-02-05T13:58:52;102138.53;;;0.65;46.87
71344;BME280;59146;43.850;25.948;2023-02-05T14:01:31;102093.69;;;0.25;47.10
71344;BME280;59146;43.850;25.948;2023-02-05T14:04:01;101963.88;;;-0.49;46.97
71344;BME280;59146;43.850;25.948;2023-02-05T14:06:31;102108.31;;;0.29;47.25
71344;BME280;59146;43.850;25.948;2023-02-05T14:09:06;102130.72;;;0.51;47.22
71344;BME280;59146;43.850;25.948;2023-02-05T14:12:04;102137.44;;;0.34;48.06
71344;BME280;59146;43.850;25.948;2023-02-05T14:14:41;102069.50;;;-0.07;48.39
71344;BME280;59146;43.850;25.948;2023-02-05T14:19:56;102130.44;;;0.15;48.68
71344;BME280;59146;43.850;25.948;2023-02-05T14:22:52;102125.44;;;0.27;48.25
71344;BME280;59146;43.850;25.948;2023-02-05T14:30:53;102121.91;;;0.16;47.99
71344;BME280;59146;43.850;25.948;2023-02-05T14:33:41;102145.06;;;0.22;48.43
71344;BME280;59146;43.850;25.948;2023-02-05T14:38:42;102072.66;;;-0.38;49.08
71344;BME280;59146;43.850;25.948;2023-02-05T14:41:17;102144.03;;;-0.01;49.17
71344;BME280;59146;43.850;25.948;2023-02-05T14:43:53;102088.88;;;-0.42;49.43
71344;BME280;59146;43.850;25.948;2023-02-05T14:48:46;102156.16;;;0.15;48.77
71344;BME280;59146;43.850;25.948;2023-02-05T14:51:25;102141.38;;;-0.10;49.00
71344;BME280;59146;43.850;25.948;2023-02-05T14:54:17;102162.97;;;0.13;48.65
71344;BME280;59146;43.850;25.948;2023-02-05T14:56:50;102104.41;;;-0.27;48.84
71344;BME280;59146;43.850;25.948;2023-02-05T15:01:49;101980.66;;;-0.88;48.27
71344;BME280;59146;43.850;25.948;2023-02-05T15:04:38;102151.78;;;0.07;48.15
71344;BME280;59146;43.850;25.948;2023-02-05T15:07:14;102165.50;;;0.04;48.42
71344;BME280;59146;43.850;25.948;2023-02-05T15:09:45;102058.69;;;-0.67;49.15
71344;BME280;59146;43.850;25.948;2023-02-05T15:14:54;102159.41;;;-0.07;49.18